SV1LH-1 Melissia GR current weather conditions

sailwx.info

Wind from 112 at 1 knots gusting 2

Air temperature 8.3° C
Dewpoint 4.0° C

Last reported at 2018-Feb-21 20:09 UTC.
Time now 2018-Feb-21 21:15 UTC

Location: N 38°03' E 023°51'.
View on Google Maps.

See reports from other nearby stations

  
Tides and Currents Weather Stations Pressure Air Temp Water Temp Dewpoint Dewpoint Depression Visibility Wind Speed Wind Dir Waves Ship Positions
date/time (UTC)wind fromknots sea level pressurealtimeterstation pressurevisibilityair tempwater tempwave heightnotes
2018-Feb-21 20:09 112 1 gusting 2 8.3
2018-Feb-21 20:04 090 2 gusting 3 8.3
2018-Feb-21 19:59 090 2 gusting 3 8.3
2018-Feb-21 19:54 090 2 gusting 2 8.3
2018-Feb-21 19:49 090 1 gusting 3 8.3
2018-Feb-21 19:44 090 1 gusting 3 8.3
2018-Feb-21 19:24 067 1 gusting 1 8.3
2018-Feb-21 19:10 112 0 gusting 1 8.3
2018-Feb-21 19:04 112 2 gusting 2 8.3
2018-Feb-21 18:54 090 1 gusting 1 8.3
2018-Feb-21 18:49 090 0 gusting 0 7.8
2018-Feb-21 18:39 112 8.3
2018-Feb-21 18:25 135 0 gusting 1 8.3
2018-Feb-21 18:14 090 8.3
2018-Feb-21 18:09 157 8.3
2018-Feb-21 17:59 090 1 gusting 2 8.3
2018-Feb-21 17:54 135 1 gusting 1 8.3
2018-Feb-21 17:49 090 0 gusting 1 8.3
2018-Feb-21 17:44 090 1 gusting 2 8.9
2018-Feb-21 17:39 090 0 gusting 1 8.9
2018-Feb-21 17:34 090 1 gusting 1 8.9
2018-Feb-21 17:29 090 1 gusting 3 8.9
2018-Feb-21 17:24 067 2 gusting 4 8.9
2018-Feb-21 17:19 067 0 gusting 1 8.9
2018-Feb-21 17:14 157 0 gusting 0 8.9
2018-Feb-21 17:09 135 0 gusting 1 8.9
2018-Feb-21 17:04 112 0 gusting 1 8.9
2018-Feb-21 16:59 022 8.9
2018-Feb-21 16:54 090 0 gusting 0 8.9
2018-Feb-21 16:49 090 1 gusting 3 8.9
2018-Feb-21 16:44 090 1 gusting 3 8.9
2018-Feb-21 16:39 112 1 gusting 2 8.9
2018-Feb-21 16:34 090 0 gusting 1 9.4
2018-Feb-21 16:29 112 0 gusting 1 9.4
2018-Feb-21 16:24 135 0 gusting 2 9.4
2018-Feb-21 16:19 090 1 gusting 3 9.4
2018-Feb-21 16:14 067 2 gusting 4 10.0
2018-Feb-21 16:09 090 1 gusting 2 10.0
2018-Feb-21 16:04 045 0 gusting 2 10.0
2018-Feb-21 15:59 067 2 gusting 3 10.0
2018-Feb-21 15:54 112 0 gusting 1 10.6
2018-Feb-21 15:49 090 0 gusting 1 10.6
2018-Feb-21 15:44 112 2 gusting 3 10.6
2018-Feb-21 15:39 090 1 gusting 3 11.1
2018-Feb-21 15:34 090 2 gusting 3 11.1
2018-Feb-21 15:29 112 1 gusting 3 11.1
2018-Feb-21 15:24 135 3 gusting 6 11.1
2018-Feb-21 15:19 157 2 gusting 3 11.7
2018-Feb-21 14:44 135 2 gusting 4 13.3
2018-Feb-21 14:35 112 3 gusting 5 12.8
2018-Feb-21 14:25 157 3 gusting 5 12.8
2018-Feb-21 14:19 090 0 gusting 1 12.8
2018-Feb-21 14:05 112 3 gusting 5 12.8
2018-Feb-21 14:00 112 2 gusting 4 12.8
2018-Feb-21 13:49 180 3 gusting 5 12.8
2018-Feb-21 13:45 135 3 gusting 4 12.8
2018-Feb-21 13:39 112 4 gusting 6 12.8
2018-Feb-21 13:35 112 2 gusting 3 13.3
2018-Feb-21 13:30 112 0 gusting 2 13.3
2018-Feb-21 13:19 067 0 gusting 1 13.3
2018-Feb-21 13:10 090 1 gusting 3 13.9
2018-Feb-21 13:04 090 1 gusting 3 13.3
2018-Feb-21 12:59 202 1 gusting 1 13.3
2018-Feb-21 12:54 157 1 gusting 3 13.3
2018-Feb-21 12:39 135 3 gusting 5 14.4
2018-Feb-21 12:35 135 2 gusting 4 15.6
2018-Feb-21 12:29 090 4 gusting 5 16.7
2018-Feb-21 12:24 112 2 gusting 3 17.2
2018-Feb-21 12:20 022 2 gusting 3 17.2
2018-Feb-21 12:14 202 3 gusting 6 16.7
2018-Feb-21 12:04 135 2 gusting 5 15.0
2018-Feb-21 11:54 090 5 gusting 6 16.1
2018-Feb-21 11:49 090 3 gusting 6 16.7
2018-Feb-21 11:39 157 3 gusting 5 17.2
2018-Feb-21 11:24 157 3 gusting 5 15.0
2018-Feb-21 11:10 090 3 gusting 6 14.4
2018-Feb-21 10:55 090 2 gusting 3 15.6
2018-Feb-21 10:49 045 4 gusting 6 16.1
2018-Feb-21 10:44 135 2 gusting 4 15.6
2018-Feb-21 10:39 247 3 gusting 4 15.0
2018-Feb-21 10:34 157 4 gusting 5 15.0
2018-Feb-21 10:29 135 2 gusting 4 15.6
2018-Feb-21 10:24 157 2 gusting 5 16.1
2018-Feb-21 10:19 202 3 gusting 5 17.2
2018-Feb-21 10:14 135 2 gusting 3 16.7
2018-Feb-21 10:09 090 4 gusting 6 16.7
2018-Feb-21 10:04 090 2 gusting 5 15.6
2018-Feb-21 09:59 090 4 gusting 6 15.6
2018-Feb-21 09:54 135 3 gusting 5 15.0
2018-Feb-21 09:49 135 3 gusting 5 16.1
2018-Feb-21 09:44 112 2 gusting 3 16.7
2018-Feb-21 09:39 112 4 gusting 6 17.2
2018-Feb-21 09:34 180 4 gusting 6 18.3
2018-Feb-21 09:29 090 3 gusting 6 17.8
2018-Feb-21 09:24 157 2 gusting 3 17.8
2018-Feb-21 09:19 090 3 gusting 5 17.8
2018-Feb-21 09:14 135 4 gusting 5 18.9
2018-Feb-21 09:09 202 1 gusting 3 18.9
2018-Feb-21 09:04 247 18.9
2018-Feb-21 08:59 315 0 gusting 1 17.8
2018-Feb-21 08:54 270 2 gusting 4 17.2
2018-Feb-21 08:49 247 1 gusting 3 17.2
2018-Feb-21 08:44 292 0 gusting 1 16.1
2018-Feb-21 08:39 270 0 gusting 1 17.2
2018-Feb-21 08:34 045 16.7
2018-Feb-21 08:29 157 0 gusting 0 15.0
2018-Feb-21 08:24 157 13.3
2018-Feb-21 08:19 090 13.3
2018-Feb-21 08:14 157 0 gusting 1 13.3
2018-Feb-21 08:09 202 13.3
2018-Feb-21 08:04 247 1 gusting 1 12.8
2018-Feb-21 07:59 225 0 gusting 1 12.2
2018-Feb-21 07:54 225 0 gusting 0 12.2
2018-Feb-21 07:49 135 0 gusting 1 12.2
2018-Feb-21 07:44 157 12.2
2018-Feb-21 07:39 202 0 gusting 1 12.2
2018-Feb-21 07:34 270 0 gusting 1 12.2
2018-Feb-21 07:29 247 12.2
2018-Feb-21 07:24 225 0 gusting 1 12.2
2018-Feb-21 07:19 180 1 gusting 2 11.7
2018-Feb-21 07:14 202 0 gusting 1 11.7
2018-Feb-21 07:09 180 2 gusting 3 11.1
2018-Feb-21 07:04 180 0 gusting 2 11.1
2018-Feb-21 06:59 225 0 gusting 1 10.0
2018-Feb-21 06:54 157 0 gusting 0 10.0
2018-Feb-21 06:49 202 0 gusting 0 9.4
2018-Feb-21 06:44 225 9.4
2018-Feb-21 06:39 270 9.4
2018-Feb-21 06:34 270 8.9
2018-Feb-21 06:29 270 0 gusting 1 8.9
2018-Feb-21 06:24 337 8.9
2018-Feb-21 06:19 022 0 gusting 1 8.9
2018-Feb-21 06:14 8.9
2018-Feb-21 06:09 157 0 gusting 1 8.9
2018-Feb-21 06:04 112 2 gusting 3 8.3
2018-Feb-21 05:59 045 3 gusting 6 8.3
2018-Feb-21 05:54 112 0 gusting 1 8.3
2018-Feb-21 05:49 090 1 gusting 2 7.8
2018-Feb-21 05:44 090 0 gusting 0 7.8
2018-Feb-21 05:39 022 7.8
2018-Feb-21 05:34 090 7.2
2018-Feb-21 05:29 112 7.2
2018-Feb-21 05:24 112 0 gusting 1 7.2
2018-Feb-21 05:19 090 0 gusting 0 7.2
2018-Feb-21 05:14 112 1 gusting 2 7.2
2018-Feb-21 05:09 112 0 gusting 1 7.2
2018-Feb-21 05:04 090 1 gusting 3 7.2
2018-Feb-21 04:59 090 2 gusting 3 7.2
2018-Feb-21 04:54 112 2 gusting 5 7.2
2018-Feb-21 04:49 090 2 gusting 2 7.2
2018-Feb-21 04:44 090 0 gusting 1 7.2
2018-Feb-21 04:39 090 0 gusting 1 7.2
2018-Feb-21 04:34 090 1 gusting 2 7.2
2018-Feb-21 04:29 090 1 gusting 2 6.7
2018-Feb-21 04:24 112 0 gusting 1 6.7
2018-Feb-21 04:19 090 6.7
2018-Feb-21 04:14 090 6.7
2018-Feb-21 04:09 067 1 gusting 1 6.7
2018-Feb-21 04:04 090 0 gusting 1 6.7
2018-Feb-21 03:59 090 6.7
2018-Feb-21 03:54 112 0 gusting 0 6.7
2018-Feb-21 03:49 045 6.7
2018-Feb-21 03:44 135 1 gusting 2 6.7
2018-Feb-21 03:39 090 0 gusting 0 6.7
2018-Feb-21 03:34 135 0 gusting 1 6.7
2018-Feb-21 03:29 225 0 gusting 1 7.2
2018-Feb-21 03:24 247 0 gusting 1 7.2
2018-Feb-21 03:19 225 7.2
2018-Feb-21 03:14 202 0 gusting 1 7.2
2018-Feb-21 03:09 157 0 gusting 1 7.2
2018-Feb-21 03:04 112 0 gusting 1 7.2
2018-Feb-21 02:59 112 0 gusting 1 7.2
2018-Feb-21 02:54 112 1 gusting 1 7.2
2018-Feb-21 02:49 090 0 gusting 1 7.2
2018-Feb-21 02:44 090 0 gusting 0 7.2
2018-Feb-21 02:39 7.2
2018-Feb-21 02:34 090 7.2
2018-Feb-21 02:29 090 7.2
2018-Feb-21 02:24 090 7.2
2018-Feb-21 02:19 090 7.2
2018-Feb-21 02:14 090 0 gusting 0 7.2
2018-Feb-21 02:09 090 1 gusting 1 7.2
2018-Feb-21 02:04 067 0 gusting 0 7.2
2018-Feb-21 01:59 022 7.2
2018-Feb-21 01:54 202 0 gusting 1 7.2
2018-Feb-21 01:49 180 0 gusting 0 7.2
2018-Feb-21 01:44 180 7.2
2018-Feb-21 01:39 315 7.2
2018-Feb-21 01:34 045 0 gusting 1 7.2
2018-Feb-21 01:29 067 0 gusting 1 7.2
2018-Feb-21 01:24 067 7.2
2018-Feb-21 01:19 292 7.2
2018-Feb-21 01:14 292 7.2
2018-Feb-21 01:09 292 0 gusting 0 7.2
2018-Feb-21 01:04 292 1 gusting 2 7.2
2018-Feb-21 00:59 270 1 gusting 2 7.2
2018-Feb-21 00:54 270 1 gusting 1 7.2
2018-Feb-21 00:49 180 0 gusting 0 7.2
2018-Feb-21 00:44 157 0 gusting 1 7.2
2018-Feb-21 00:39 112 0 gusting 1 7.2
2018-Feb-21 00:34 045 1 gusting 3 7.2
2018-Feb-21 00:29 067 0 gusting 1 7.2
2018-Feb-21 00:24 045 7.2
2018-Feb-21 00:19 045 7.2
2018-Feb-21 00:14 090 0 gusting 0 7.2
2018-Feb-21 00:09 090 0 gusting 1 7.2
2018-Feb-21 00:04 067 0 gusting 1 7.2
2018-Feb-20 23:59 045 1 gusting 2 7.2
2018-Feb-20 23:54 022 0 gusting 1 7.2
2018-Feb-20 23:49 7.2
2018-Feb-20 23:44 337 0 gusting 1 7.2
2018-Feb-20 23:39 337 7.2
2018-Feb-20 23:34 337 0 gusting 0 7.2
2018-Feb-20 23:29 022 0 gusting 1 6.7
2018-Feb-20 23:24 270 0 gusting 0 6.7
2018-Feb-20 23:19 270 6.7
2018-Feb-20 23:14 270 7.2
2018-Feb-20 23:09 022 7.2
2018-Feb-20 23:04 247 7.2
2018-Feb-20 22:59 225 0 gusting 1 7.2
2018-Feb-20 22:54 7.2
2018-Feb-20 22:49 7.2
2018-Feb-20 22:44 045 0 gusting 0 7.2
2018-Feb-20 22:39 7.2
2018-Feb-20 22:34 337 0 gusting 0 7.2
2018-Feb-20 22:29 7.2
2018-Feb-20 22:24 7.2
2018-Feb-20 22:19 022 7.2
2018-Feb-20 22:14 045 7.2
2018-Feb-20 22:09 045 7.2
2018-Feb-20 22:04 045 7.2
2018-Feb-20 21:59 135 7.2
2018-Feb-20 21:54 7.2
2018-Feb-20 21:49 022 7.2
2018-Feb-20 21:44 180 0 gusting 1 7.2
2018-Feb-20 21:39 180 7.2
2018-Feb-20 21:34 225 0 gusting 1 7.2
2018-Feb-20 21:29 180 7.2
2018-Feb-20 21:24 157 0 gusting 1 7.2
2018-Feb-20 21:19 180 0 gusting 1 7.2
2018-Feb-20 21:14 202 0 gusting 0 7.2
2018-Feb-20 21:09 202 0 gusting 1 7.2
2018-Feb-20 21:04 292 7.2
2018-Feb-20 20:59 7.2
2018-Feb-20 20:54 225 7.2
2018-Feb-20 20:49 225 7.2
2018-Feb-20 20:44 180 7.2
2018-Feb-20 20:39 247 0 gusting 0 7.2
2018-Feb-20 20:34 067 7.8
2018-Feb-20 20:29 090 7.8
2018-Feb-20 20:24 090 7.8
2018-Feb-20 20:19 225 0 gusting 1 7.8
2018-Feb-20 20:14 225 7.8
2018-Feb-20 20:09 7.8
2018-Feb-20 20:04 247 1 gusting 1 7.8
2018-Feb-20 19:59 247 7.8
2018-Feb-20 19:54 270 0 gusting 1 7.8
2018-Feb-20 19:49 270 0 gusting 0 7.8
2018-Feb-20 19:44 315 0 gusting 0 7.8
2018-Feb-20 19:39 337 7.8
2018-Feb-20 19:34 7.8
2018-Feb-20 19:29 7.8
2018-Feb-20 19:24 202 7.8
2018-Feb-20 19:19 292 0 gusting 1 7.8
2018-Feb-20 19:14 270 7.8
2018-Feb-20 19:09 045 7.8
2018-Feb-20 19:04 045 7.8
2018-Feb-20 18:59 337 7.8
2018-Feb-20 18:54 045 0 gusting 1 7.8
2018-Feb-20 18:49 045 7.8
2018-Feb-20 18:44 315 2 gusting 2 7.8
2018-Feb-20 18:39 270 1 gusting 2 7.8
2018-Feb-20 18:34 247 0 gusting 1 7.8
2018-Feb-20 18:29 270 1 gusting 2 7.8
2018-Feb-20 18:24 247 0 gusting 2 7.8
2018-Feb-20 18:19 270 1 gusting 3 7.8
2018-Feb-20 18:14 270 1 gusting 4 7.8
2018-Feb-20 18:05 225 7.8
2018-Feb-20 18:04 225 7.8
2018-Feb-20 17:59 180 0 gusting 1 7.8
2018-Feb-20 17:54 225 0 gusting 0 7.8
2018-Feb-20 17:49 225 0 gusting 1 7.8
2018-Feb-20 17:44 270 2 gusting 3 7.8
2018-Feb-20 17:39 067 7.8
2018-Feb-20 17:34 045 7.8
2018-Feb-20 17:29 090 0 gusting 1 7.8
2018-Feb-20 17:24 090 1 gusting 1 7.8
2018-Feb-20 17:19 090 0 gusting 0 7.8
2018-Feb-20 17:14 112 7.8
2018-Feb-20 17:09 090 0 gusting 1 7.8
2018-Feb-20 17:04 112 0 gusting 1 7.8
2018-Feb-20 16:59 180 7.8
2018-Feb-20 16:54 180 7.8
2018-Feb-20 16:49 247 0 gusting 1 7.8
2018-Feb-20 16:44 270 7.8
2018-Feb-20 16:39 180 0 gusting 1 7.8
2018-Feb-20 16:34 202 0 gusting 1 7.8
2018-Feb-20 16:29 225 0 gusting 1 7.8
2018-Feb-20 16:24 225 7.8
2018-Feb-20 16:19 180 7.8
2018-Feb-20 16:14 202 7.8
2018-Feb-20 16:09 067 7.8
2018-Feb-20 16:04 112 0 gusting 1 7.8
2018-Feb-20 15:59 135 8.3
2018-Feb-20 15:54 135 8.3
2018-Feb-20 15:49 067 8.3
2018-Feb-20 15:44 067 8.3
2018-Feb-20 15:39 090 8.3
2018-Feb-20 15:34 090 1 gusting 1 8.3
2018-Feb-20 15:29 090 0 gusting 1 8.3
2018-Feb-20 15:24 135 0 gusting 1 8.3
2018-Feb-20 15:19 045 1 gusting 2 8.3
2018-Feb-20 15:14 112 1 gusting 2 8.3
2018-Feb-20 15:09 045 2 gusting 4 8.3
2018-Feb-20 15:04 022 1 gusting 2 8.3
2018-Feb-20 14:59 090 2 gusting 3 8.3
2018-Feb-20 14:54 090 4 gusting 5 8.3
2018-Feb-20 14:49 090 1 gusting 3 8.3
2018-Feb-20 14:44 090 1 gusting 5 8.3
2018-Feb-20 14:39 090 2 gusting 3 8.3
2018-Feb-20 14:34 090 3 gusting 5 8.9
2018-Feb-20 14:29 022 2 gusting 3 9.4
2018-Feb-20 14:24 067 1 gusting 3 10.0
2018-Feb-20 14:19 112 2 gusting 3 10.6
2018-Feb-20 14:14 067 2 gusting 3 10.6
2018-Feb-20 14:09 090 2 gusting 4 10.0
2018-Feb-20 14:04 045 2 gusting 5 10.0
2018-Feb-20 13:59 112 3 gusting 4 9.4
2018-Feb-20 13:54 022 1 gusting 3 9.4
2018-Feb-20 13:49 090 1 gusting 3 10.0
2018-Feb-20 13:44 045 2 gusting 3 10.0
2018-Feb-20 13:39 090 1 gusting 4 9.4
2018-Feb-20 13:34 090 2 gusting 4 10.0
2018-Feb-20 13:29 090 2 gusting 3 10.0
2018-Feb-20 13:24 112 2 gusting 3 10.0
2018-Feb-20 13:19 112 3 gusting 4 10.6
2018-Feb-20 13:14 135 0 gusting 2 10.6
2018-Feb-20 13:09 112 1 gusting 2 10.6
2018-Feb-20 13:04 112 0 gusting 1 10.6
2018-Feb-20 12:59 090 2 gusting 3 10.6
2018-Feb-20 12:54 067 1 gusting 3 10.6
2018-Feb-20 12:49 112 2 gusting 4 10.6
2018-Feb-20 12:44 090 2 gusting 3 11.1
2018-Feb-20 12:39 202 0 gusting 1 11.1
2018-Feb-20 12:34 090 2 gusting 3 11.1
2018-Feb-20 12:29 135 1 gusting 1 10.6
2018-Feb-20 12:24 045 1 gusting 3 11.1
2018-Feb-20 12:19 045 1 gusting 2 10.6
2018-Feb-20 12:14 10.6
2018-Feb-20 12:09 045 1 gusting 2 10.6
2018-Feb-20 12:04 11.1
2018-Feb-20 11:59 157 4 gusting 6 11.1
2018-Feb-20 11:54 337 2 gusting 4 11.1
2018-Feb-20 11:49 022 4 gusting 8 11.1
2018-Feb-20 11:44 045 2 gusting 4 11.1
2018-Feb-20 11:39 270 11.1
2018-Feb-20 11:34 045 3 gusting 4 11.1
2018-Feb-20 11:29 022 6 gusting 8 11.7
2018-Feb-20 11:24 045 1 gusting 2 12.2
2018-Feb-20 11:19 067 3 gusting 5 12.2
2018-Feb-20 11:14 045 2 gusting 5 12.2
2018-Feb-20 11:09 045 3 gusting 6 11.7
2018-Feb-20 11:04 022 3 gusting 5 11.7
2018-Feb-20 10:59 090 4 gusting 6 11.7
2018-Feb-20 10:54 022 3 gusting 6 11.7
2018-Feb-20 10:49 022 4 gusting 6 11.7
2018-Feb-20 10:44 11.7
2018-Feb-20 10:39 12.2
2018-Feb-20 10:34 045 4 gusting 5 12.8
2018-Feb-20 10:29 12.2
2018-Feb-20 10:24 067 4 gusting 7 11.7
2018-Feb-20 10:19 315 2 gusting 3 12.2
2018-Feb-20 10:14 022 6 gusting 12 12.8
2018-Feb-20 10:09 067 3 gusting 6 13.3
2018-Feb-20 10:04 090 2 gusting 3 13.9
2018-Feb-20 09:59 022 3 gusting 6 13.3
2018-Feb-20 09:54 270 0 gusting 1 12.8
2018-Feb-20 09:49 225 0 gusting 1 12.8
2018-Feb-20 09:44 225 0 gusting 0 13.3
2018-Feb-20 09:39 247 12.8
2018-Feb-20 09:34 225 0 gusting 0 12.2
2018-Feb-20 09:29 180 0 gusting 1 12.8
2018-Feb-20 09:24 180 1 gusting 2 12.8
2018-Feb-20 09:19 202 2 gusting 3 12.2
2018-Feb-20 09:14 270 1 gusting 2 11.7
2018-Feb-20 09:09 337 1 gusting 2 11.1
2018-Feb-20 09:04 247 1 gusting 1 9.4
2018-Feb-20 08:59 247 2 gusting 3 8.9
2018-Feb-20 08:54 270 1 gusting 2 8.3
2018-Feb-20 08:49 247 2 gusting 3 8.9
2018-Feb-20 08:44 247 2 gusting 3 8.9
2018-Feb-20 08:39 270 0 gusting 1 8.9
2018-Feb-20 08:34 247 1 gusting 1 8.3
2018-Feb-20 08:29 225 1 gusting 1 8.3
2018-Feb-20 08:24 225 0 gusting 1 7.8
2018-Feb-20 08:19 202 7.2
2018-Feb-20 08:14 7.2
2018-Feb-20 08:09 247 0 gusting 1 7.2
2018-Feb-20 08:04 270 7.2
2018-Feb-20 07:59 135 0 gusting 0 7.2
2018-Feb-20 07:54 202 1 gusting 3 7.8
2018-Feb-20 07:49 270 0 gusting 1 7.2
2018-Feb-20 07:44 247 0 gusting 1 7.2
2018-Feb-20 07:39 270 0 gusting 0 6.7
2018-Feb-20 07:34 225 1 gusting 2 6.7
2018-Feb-20 07:29 247 1 gusting 2 6.7
2018-Feb-20 07:24 315 0 gusting 0 6.7
2018-Feb-20 07:19 247 1 gusting 2 6.7
2018-Feb-20 07:14 247 0 gusting 1 6.1
2018-Feb-20 07:09 247 1 gusting 2 6.1
2018-Feb-20 07:04 270 1 gusting 2 6.1
2018-Feb-20 06:59 067 0 gusting 1 6.1
2018-Feb-20 06:54 045 3 gusting 5 6.1
2018-Feb-20 06:49 045 2 gusting 4 5.6
2018-Feb-20 06:44 112 3 gusting 4 5.6
2018-Feb-20 06:39 045 3 gusting 6 5.6
2018-Feb-20 06:34 045 4 gusting 6 5.6
2018-Feb-20 06:29 045 0 gusting 2 5.6
2018-Feb-20 06:24 045 4 gusting 6 5.6
2018-Feb-20 06:19 045 4 gusting 6 5.6
2018-Feb-20 06:14 067 2 gusting 3 5.0
2018-Feb-20 06:09 112 3 gusting 5 5.0
2018-Feb-20 06:04 202 1 gusting 4 5.0
2018-Feb-20 05:59 067 1 gusting 3 5.0
2018-Feb-20 05:54 045 5 gusting 7 5.0
2018-Feb-20 05:49 067 3 gusting 6 5.0
2018-Feb-20 05:44 045 3 gusting 5 5.0
2018-Feb-20 05:39 045 4 gusting 6 5.0
2018-Feb-20 05:34 090 5 gusting 6 5.0
2018-Feb-20 05:29 022 3 gusting 6 5.0
2018-Feb-20 05:24 045 4 gusting 6 5.0
2018-Feb-20 05:19 112 2 gusting 5 5.0
2018-Feb-20 05:14 045 5 gusting 7 5.0
2018-Feb-20 05:09 067 3 gusting 6 5.0
2018-Feb-20 05:04 090 5 gusting 7 5.0
2018-Feb-20 04:59 5.0
2018-Feb-20 04:54 067 4 gusting 6 5.0
2018-Feb-20 04:49 022 4 gusting 6 5.0
2018-Feb-20 04:44 067 3 gusting 4 5.0
2018-Feb-20 04:39 045 4 gusting 6 5.0
2018-Feb-20 04:34 5.0
2018-Feb-20 04:29 067 5 gusting 8 5.0
2018-Feb-20 04:24 067 4 gusting 6 5.0
2018-Feb-20 04:19 067 6 gusting 10 5.0
2018-Feb-20 04:14 112 4 gusting 6 5.0
2018-Feb-20 04:09 067 4 gusting 6 5.0
2018-Feb-20 04:04 022 4 gusting 7 5.0
2018-Feb-20 03:59 022 6 gusting 8 5.0
2018-Feb-20 03:54 5.6
2018-Feb-20 03:49 067 4 gusting 7 5.6
2018-Feb-20 03:44 067 2 gusting 3 5.6
2018-Feb-20 03:39 5.6
2018-Feb-20 03:34 045 3 gusting 7 5.6
2018-Feb-20 03:29 5.6
2018-Feb-20 03:24 135 6 gusting 10 5.6
2018-Feb-20 03:19 045 2 gusting 6 5.6
2018-Feb-20 03:14 5.6
2018-Feb-20 03:09 045 5 gusting 7 5.6
2018-Feb-20 03:04 022 4 gusting 10 5.6
2018-Feb-20 02:59 067 3 gusting 5 5.6
2018-Feb-20 02:54 090 6 gusting 10 5.6
2018-Feb-20 02:49 337 5 gusting 7 5.6
2018-Feb-20 02:44 022 6 gusting 11 5.6
2018-Feb-20 02:39 067 3 gusting 7 5.6
2018-Feb-20 02:34 090 3 gusting 6 5.6
2018-Feb-20 02:29 067 2 gusting 5 5.6
2018-Feb-20 02:24 112 2 gusting 6 5.6
2018-Feb-20 02:19 135 5 gusting 8 5.6
2018-Feb-20 02:14 045 2 gusting 4 5.6
2018-Feb-20 02:09 022 4 gusting 6 5.6
2018-Feb-20 02:04 090 4 gusting 8 6.1
2018-Feb-20 01:59 112 1 gusting 3 6.1
2018-Feb-20 01:54 067 5 gusting 11 6.1
2018-Feb-20 01:49 6.1
2018-Feb-20 01:44 112 3 gusting 8 6.1
2018-Feb-20 01:39 022 0 gusting 1 6.1
2018-Feb-20 01:34 045 6 gusting 10 6.1
2018-Feb-20 01:29 022 2 gusting 5 6.1
2018-Feb-20 01:24 112 2 gusting 4 6.1
2018-Feb-20 01:19 112 2 gusting 6 6.1
2018-Feb-20 01:14 315 3 gusting 6 6.7
2018-Feb-20 01:09 022 5 gusting 7 6.7
2018-Feb-20 01:04 045 5 gusting 8 6.7
2018-Feb-20 00:59 045 5 gusting 10 6.1
2018-Feb-20 00:54 067 4 gusting 8 6.1
2018-Feb-20 00:49 067 3 gusting 6 6.1
2018-Feb-20 00:44 112 2 gusting 7 6.1
2018-Feb-20 00:39 315 0 gusting 1 6.1
2018-Feb-20 00:34 270 0 gusting 1 6.1
2018-Feb-20 00:29 315 6.1
2018-Feb-20 00:24 270 2 gusting 4 6.1
2018-Feb-20 00:19 270 1 gusting 3 6.1
2018-Feb-20 00:14 292 2 gusting 6 6.7
2018-Feb-20 00:09 225 0 gusting 2 6.7
2018-Feb-20 00:04 292 1 gusting 3 6.7
2018-Feb-19 23:59 337 3 gusting 6 6.7
2018-Feb-19 23:54 135 4 gusting 6 6.7
2018-Feb-19 23:49 337 5 gusting 7 6.7
2018-Feb-19 23:44 045 3 gusting 6 6.7
2018-Feb-19 23:39 135 2 gusting 5 6.7
2018-Feb-19 23:34 315 1 gusting 3 6.7
2018-Feb-19 23:29 112 2 gusting 4 6.7
2018-Feb-19 23:24 6.7
2018-Feb-19 23:19 022 1 gusting 2 6.7
2018-Feb-19 23:14 090 2 gusting 5 6.7
2018-Feb-19 23:09 067 4 gusting 8 6.1
2018-Feb-19 23:04 090 2 gusting 5 6.1
2018-Feb-19 22:59 022 3 gusting 6 6.7
2018-Feb-19 22:54 090 3 gusting 8 6.7
2018-Feb-19 22:49 090 6 gusting 10 6.7
2018-Feb-19 22:44 090 1 gusting 2 6.7
2018-Feb-19 22:39 090 2 gusting 3 6.7
2018-Feb-19 22:34 112 0 gusting 1 7.2
2018-Feb-19 22:29 315 1 gusting 3 7.2
2018-Feb-19 22:24 090 2 gusting 5 7.2
2018-Feb-19 22:19 7.2
2018-Feb-19 22:14 7.2
2018-Feb-19 22:09 067 1 gusting 3 7.2
2018-Feb-19 22:04 022 4 gusting 6 7.2
2018-Feb-19 21:59 045 1 gusting 5 7.2
2018-Feb-19 21:54 7.2
2018-Feb-19 21:49 067 2 gusting 4 7.2
2018-Feb-19 21:44 045 3 gusting 6 7.2
2018-Feb-19 21:39 022 2 gusting 3 7.2
2018-Feb-19 21:34 090 4 gusting 8 7.2
2018-Feb-19 21:29 7.2
2018-Feb-19 21:24 067 1 gusting 2 7.2
2018-Feb-19 21:19 022 4 gusting 6 7.8
2018-Feb-19 21:14 045 2 gusting 5 7.8
2018-Feb-19 21:09 022 6 gusting 11 7.2
2018-Feb-19 21:04 247 2 gusting 5 7.8